sensor_id;sensor_type;location;lat;lon;timestamp;P1;durP1;ratioP1;P2;durP2;ratioP2
6852;SDS011;3465;42.144;24.722;2022-09-29T00:00:08;7.68;;;3.20;;
6852;SDS011;3465;42.144;24.722;2022-09-29T00:02:34;7.40;;;2.90;;
6852;SDS011;3465;42.144;24.722;2022-09-29T00:04:59;7.03;;;3.20;;
6852;SDS011;3465;42.144;24.722;2022-09-29T00:07:24;6.22;;;3.20;;
6852;SDS011;3465;42.144;24.722;2022-09-29T00:09:50;7.05;;;3.10;;
6852;SDS011;3465;42.144;24.722;2022-09-29T00:12:15;8.10;;;3.30;;
6852;SDS011;3465;42.144;24.722;2022-09-29T00:14:40;5.72;;;3.13;;
6852;SDS011;3465;42.144;24.722;2022-09-29T00:17:06;5.97;;;3.40;;
6852;SDS011;3465;42.144;24.722;2022-09-29T00:19:31;6.10;;;3.67;;
6852;SDS011;3465;42.144;24.722;2022-09-29T00:21:57;8.27;;;3.45;;
6852;SDS011;3465;42.144;24.722;2022-09-29T00:24:23;6.72;;;3.55;;
6852;SDS011;3465;42.144;24.722;2022-09-29T00:26:50;5.43;;;3.20;;
6852;SDS011;3465;42.144;24.722;2022-09-29T00:29:15;10.75;;;3.78;;
6852;SDS011;3465;42.144;24.722;2022-09-29T00:31:40;6.03;;;3.30;;
6852;SDS011;3465;42.144;24.722;2022-09-29T00:34:06;10.25;;;3.40;;
6852;SDS011;3465;42.144;24.722;2022-09-29T00:36:32;23.83;;;4.95;;
6852;SDS011;3465;42.144;24.722;2022-09-29T00:38:57;17.58;;;3.92;;
6852;SDS011;3465;42.144;24.722;2022-09-29T00:41:24;5.70;;;3.20;;
6852;SDS011;3465;42.144;24.722;2022-09-29T00:46:31;16.75;;;3.95;;
6852;SDS011;3465;42.144;24.722;2022-09-29T00:49:06;11.45;;;3.83;;
6852;SDS011;3465;42.144;24.722;2022-09-29T00:51:37;11.52;;;3.85;;
6852;SDS011;3465;42.144;24.722;2022-09-29T00:54:04;16.20;;;3.85;;
6852;SDS011;3465;42.144;24.722;2022-09-29T00:56:32;6.80;;;3.28;;
6852;SDS011;3465;42.144;24.722;2022-09-29T00:59:04;12.52;;;3.13;;
6852;SDS011;3465;42.144;24.722;2022-09-29T01:01:33;7.78;;;3.38;;
6852;SDS011;3465;42.144;24.722;2022-09-29T01:04:03;7.27;;;3.40;;
6852;SDS011;3465;42.144;24.722;2022-09-29T01:06:40;8.23;;;3.25;;
6852;SDS011;3465;42.144;24.722;2022-09-29T01:09:34;5.50;;;3.10;;
6852;SDS011;3465;42.144;24.722;2022-09-29T01:11:59;8.15;;;3.08;;
6852;SDS011;3465;42.144;24.722;2022-09-29T01:14:26;5.40;;;3.25;;
6852;SDS011;3465;42.144;24.722;2022-09-29T01:16:53;6.45;;;3.47;;
6852;SDS011;3465;42.144;24.722;2022-09-29T01:24:57;6.38;;;3.10;;
6852;SDS011;3465;42.144;24.722;2022-09-29T01:41:56;5.23;;;3.40;;
6852;SDS011;3465;42.144;24.722;2022-09-29T01:44:24;9.60;;;4.10;;
6852;SDS011;3465;42.144;24.722;2022-09-29T01:47:00;7.83;;;3.60;;
6852;SDS011;3465;42.144;24.722;2022-09-29T01:49:33;7.33;;;3.60;;
6852;SDS011;3465;42.144;24.722;2022-09-29T01:52:06;6.90;;;3.87;;
6852;SDS011;3465;42.144;24.722;2022-09-29T01:54:42;6.90;;;4.30;;
6852;SDS011;3465;42.144;24.722;2022-09-29T01:57:16;7.30;;;4.00;;
6852;SDS011;3465;42.144;24.722;2022-09-29T01:59:52;10.40;;;4.37;;
6852;SDS011;3465;42.144;24.722;2022-09-29T02:02:27;8.20;;;4.00;;
6852;SDS011;3465;42.144;24.722;2022-09-29T02:05:00;7.83;;;3.87;;
6852;SDS011;3465;42.144;24.722;2022-09-29T02:07:33;8.07;;;4.00;;
6852;SDS011;3465;42.144;24.722;2022-09-29T02:10:04;7.67;;;4.00;;
6852;SDS011;3465;42.144;24.722;2022-09-29T02:12:34;7.73;;;4.20;;
6852;SDS011;3465;42.144;24.722;2022-09-29T02:15:04;10.40;;;4.23;;
6852;SDS011;3465;42.144;24.722;2022-09-29T02:17:35;8.17;;;3.90;;
6852;SDS011;3465;42.144;24.722;2022-09-29T02:20:03;9.77;;;4.10;;
6852;SDS011;3465;42.144;24.722;2022-09-29T02:22:29;8.47;;;3.87;;
6852;SDS011;3465;42.144;24.722;2022-09-29T02:24:55;10.17;;;4.43;;
6852;SDS011;3465;42.144;24.722;2022-09-29T02:27:23;9.37;;;4.00;;
6852;SDS011;3465;42.144;24.722;2022-09-29T02:29:51;7.87;;;4.00;;
6852;SDS011;3465;42.144;24.722;2022-09-29T02:32:16;7.63;;;3.87;;
6852;SDS011;3465;42.144;24.722;2022-09-29T02:34:43;5.07;;;3.50;;
6852;SDS011;3465;42.144;24.722;2022-09-29T02:40:09;7.57;;;3.57;;
6852;SDS011;3465;42.144;24.722;2022-09-29T02:53:45;7.10;;;3.60;;
6852;SDS011;3465;42.144;24.722;2022-09-29T02:59:04;4.47;;;2.90;;
6852;SDS011;3465;42.144;24.722;2022-09-29T03:01:34;5.33;;;3.43;;
6852;SDS011;3465;42.144;24.722;2022-09-29T03:04:12;6.53;;;3.10;;
6852;SDS011;3465;42.144;24.722;2022-09-29T03:06:38;6.27;;;3.80;;
6852;SDS011;3465;42.144;24.722;2022-09-29T03:09:03;4.83;;;3.50;;
6852;SDS011;3465;42.144;24.722;2022-09-29T03:11:28;4.40;;;2.77;;
6852;SDS011;3465;42.144;24.722;2022-09-29T03:13:54;4.83;;;3.13;;
6852;SDS011;3465;42.144;24.722;2022-09-29T03:16:19;5.17;;;3.57;;
6852;SDS011;3465;42.144;24.722;2022-09-29T03:18:44;6.60;;;3.57;;
6852;SDS011;3465;42.144;24.722;2022-09-29T03:21:10;7.27;;;3.60;;
6852;SDS011;3465;42.144;24.722;2022-09-29T03:23:36;7.13;;;3.10;;
6852;SDS011;3465;42.144;24.722;2022-09-29T03:26:01;6.97;;;2.93;;
6852;SDS011;3465;42.144;24.722;2022-09-29T03:28:27;4.47;;;3.20;;
6852;SDS011;3465;42.144;24.722;2022-09-29T03:30:52;7.90;;;3.57;;
6852;SDS011;3465;42.144;24.722;2022-09-29T03:33:19;4.70;;;3.23;;
6852;SDS011;3465;42.144;24.722;2022-09-29T03:35:45;6.80;;;3.50;;
6852;SDS011;3465;42.144;24.722;2022-09-29T03:38:10;7.03;;;3.60;;
6852;SDS011;3465;42.144;24.722;2022-09-29T03:40:36;8.23;;;3.40;;
6852;SDS011;3465;42.144;24.722;2022-09-29T03:43:01;8.00;;;3.30;;
6852;SDS011;3465;42.144;24.722;2022-09-29T03:45:26;5.83;;;3.13;;
6852;SDS011;3465;42.144;24.722;2022-09-29T03:47:52;8.97;;;3.87;;
6852;SDS011;3465;42.144;24.722;2022-09-29T03:50:17;10.63;;;4.60;;
6852;SDS011;3465;42.144;24.722;2022-09-29T03:52:43;8.93;;;3.87;;
6852;SDS011;3465;42.144;24.722;2022-09-29T03:55:08;7.57;;;3.33;;
6852;SDS011;3465;42.144;24.722;2022-09-29T03:57:34;7.30;;;3.70;;
6852;SDS011;3465;42.144;24.722;2022-09-29T03:59:59;8.90;;;3.50;;
6852;SDS011;3465;42.144;24.722;2022-09-29T04:02:25;8.13;;;4.13;;
6852;SDS011;3465;42.144;24.722;2022-09-29T04:04:50;12.00;;;4.10;;
6852;SDS011;3465;42.144;24.722;2022-09-29T04:07:15;16.80;;;4.97;;
6852;SDS011;3465;42.144;24.722;2022-09-29T04:09:41;7.57;;;3.77;;
6852;SDS011;3465;42.144;24.722;2022-09-29T04:12:07;9.00;;;3.90;;
6852;SDS011;3465;42.144;24.722;2022-09-29T04:14:32;7.73;;;3.97;;
6852;SDS011;3465;42.144;24.722;2022-09-29T04:16:58;14.17;;;5.03;;
6852;SDS011;3465;42.144;24.722;2022-09-29T04:19:24;5.43;;;4.00;;
6852;SDS011;3465;42.144;24.722;2022-09-29T04:21:50;7.20;;;3.90;;
6852;SDS011;3465;42.144;24.722;2022-09-29T04:24:15;8.57;;;3.60;;
6852;SDS011;3465;42.144;24.722;2022-09-29T04:26:40;8.53;;;3.83;;
6852;SDS011;3465;42.144;24.722;2022-09-29T04:29:06;9.73;;;4.40;;
6852;SDS011;3465;42.144;24.722;2022-09-29T04:31:32;12.70;;;4.20;;
6852;SDS011;3465;42.144;24.722;2022-09-29T04:33:57;10.27;;;4.10;;
6852;SDS011;3465;42.144;24.722;2022-09-29T04:36:23;5.83;;;3.97;;
6852;SDS011;3465;42.144;24.722;2022-09-29T04:38:48;8.60;;;3.73;;
6852;SDS011;3465;42.144;24.722;2022-09-29T04:41:15;8.27;;;3.63;;
6852;SDS011;3465;42.144;24.722;2022-09-29T04:43:41;7.57;;;3.77;;
6852;SDS011;3465;42.144;24.722;2022-09-29T04:46:07;13.53;;;4.10;;
6852;SDS011;3465;42.144;24.722;2022-09-29T04:48:34;8.77;;;3.70;;
6852;SDS011;3465;42.144;24.722;2022-09-29T04:51:00;10.47;;;4.13;;
6852;SDS011;3465;42.144;24.722;2022-09-29T04:53:26;10.93;;;4.00;;
6852;SDS011;3465;42.144;24.722;2022-09-29T04:55:51;14.00;;;3.90;;
6852;SDS011;3465;42.144;24.722;2022-09-29T04:58:17;8.10;;;4.10;;
6852;SDS011;3465;42.144;24.722;2022-09-29T05:00:42;9.63;;;3.40;;
6852;SDS011;3465;42.144;24.722;2022-09-29T05:03:08;10.60;;;3.40;;
6852;SDS011;3465;42.144;24.722;2022-09-29T05:05:33;18.48;;;6.38;;
6852;SDS011;3465;42.144;24.722;2022-09-29T05:07:58;13.05;;;4.05;;
6852;SDS011;3465;42.144;24.722;2022-09-29T05:10:24;6.22;;;3.10;;
6852;SDS011;3465;42.144;24.722;2022-09-29T05:12:50;10.15;;;3.80;;
6852;SDS011;3465;42.144;24.722;2022-09-29T05:15:16;4.72;;;2.75;;
6852;SDS011;3465;42.144;24.722;2022-09-29T05:17:43;12.23;;;3.60;;
6852;SDS011;3465;42.144;24.722;2022-09-29T05:20:08;12.98;;;3.05;;
6852;SDS011;3465;42.144;24.722;2022-09-29T05:22:34;6.97;;;2.90;;
6852;SDS011;3465;42.144;24.722;2022-09-29T05:25:00;6.65;;;3.10;;
6852;SDS011;3465;42.144;24.722;2022-09-29T05:27:25;6.80;;;2.83;;
6852;SDS011;3465;42.144;24.722;2022-09-29T05:29:51;6.88;;;2.92;;
6852;SDS011;3465;42.144;24.722;2022-09-29T05:32:16;5.72;;;3.00;;
6852;SDS011;3465;42.144;24.722;2022-09-29T05:34:42;11.65;;;2.97;;
6852;SDS011;3465;42.144;24.722;2022-09-29T05:37:07;5.63;;;2.80;;
6852;SDS011;3465;42.144;24.722;2022-09-29T05:39:33;8.73;;;2.45;;
6852;SDS011;3465;42.144;24.722;2022-09-29T05:42:01;6.47;;;2.53;;
6852;SDS011;3465;42.144;24.722;2022-09-29T05:44:27;4.90;;;2.40;;
6852;SDS011;3465;42.144;24.722;2022-09-29T05:46:53;7.63;;;2.28;;
6852;SDS011;3465;42.144;24.722;2022-09-29T05:49:18;6.40;;;2.60;;
6852;SDS011;3465;42.144;24.722;2022-09-29T05:51:44;9.55;;;2.72;;
6852;SDS011;3465;42.144;24.722;2022-09-29T05:54:09;10.43;;;2.72;;
6852;SDS011;3465;42.144;24.722;2022-09-29T05:56:35;3.83;;;2.30;;
6852;SDS011;3465;42.144;24.722;2022-09-29T05:59:00;7.78;;;2.40;;
6852;SDS011;3465;42.144;24.722;2022-09-29T06:01:26;4.18;;;2.58;;
6852;SDS011;3465;42.144;24.722;2022-09-29T06:03:55;9.85;;;2.35;;
6852;SDS011;3465;42.144;24.722;2022-09-29T06:06:25;10.90;;;2.50;;
6852;SDS011;3465;42.144;24.722;2022-09-29T06:08:53;10.95;;;3.10;;
6852;SDS011;3465;42.144;24.722;2022-09-29T06:11:20;8.23;;;2.42;;
6852;SDS011;3465;42.144;24.722;2022-09-29T06:13:48;6.80;;;2.22;;
6852;SDS011;3465;42.144;24.722;2022-09-29T06:16:16;12.25;;;2.30;;
6852;SDS011;3465;42.144;24.722;2022-09-29T06:18:43;8.02;;;2.30;;
6852;SDS011;3465;42.144;24.722;2022-09-29T06:21:11;8.52;;;2.63;;
6852;SDS011;3465;42.144;24.722;2022-09-29T06:23:38;5.35;;;2.22;;
6852;SDS011;3465;42.144;24.722;2022-09-29T06:26:05;4.10;;;2.40;;
6852;SDS011;3465;42.144;24.722;2022-09-29T06:28:33;10.95;;;2.88;;
6852;SDS011;3465;42.144;24.722;2022-09-29T06:30:59;6.22;;;2.38;;
6852;SDS011;3465;42.144;24.722;2022-09-29T06:33:26;6.60;;;2.22;;
6852;SDS011;3465;42.144;24.722;2022-09-29T06:35:52;3.13;;;1.95;;
6852;SDS011;3465;42.144;24.722;2022-09-29T06:38:36;5.05;;;2.20;;
6852;SDS011;3465;42.144;24.722;2022-09-29T06:41:01;5.35;;;2.10;;
6852;SDS011;3465;42.144;24.722;2022-09-29T06:43:27;7.82;;;2.30;;
6852;SDS011;3465;42.144;24.722;2022-09-29T06:45:52;7.13;;;2.10;;
6852;SDS011;3465;42.144;24.722;2022-09-29T06:48:18;9.00;;;2.40;;
6852;SDS011;3465;42.144;24.722;2022-09-29T06:50:43;8.68;;;2.30;;
6852;SDS011;3465;42.144;24.722;2022-09-29T06:53:09;3.97;;;2.05;;
6852;SDS011;3465;42.144;24.722;2022-09-29T06:55:34;6.22;;;2.38;;
6852;SDS011;3465;42.144;24.722;2022-09-29T06:57:59;10.23;;;2.50;;
6852;SDS011;3465;42.144;24.722;2022-09-29T07:00:25;6.93;;;2.10;;
6852;SDS011;3465;42.144;24.722;2022-09-29T07:02:51;8.02;;;2.42;;
6852;SDS011;3465;42.144;24.722;2022-09-29T07:05:16;5.53;;;2.50;;
6852;SDS011;3465;42.144;24.722;2022-09-29T07:07:41;7.07;;;2.40;;
6852;SDS011;3465;42.144;24.722;2022-09-29T07:10:07;5.28;;;1.85;;
6852;SDS011;3465;42.144;24.722;2022-09-29T07:12:33;10.30;;;2.40;;
6852;SDS011;3465;42.144;24.722;2022-09-29T07:14:58;10.18;;;3.08;;
6852;SDS011;3465;42.144;24.722;2022-09-29T07:17:24;13.48;;;2.42;;
6852;SDS011;3465;42.144;24.722;2022-09-29T07:19:50;2.60;;;1.80;;
6852;SDS011;3465;42.144;24.722;2022-09-29T07:22:16;5.85;;;1.80;;
6852;SDS011;3465;42.144;24.722;2022-09-29T07:24:41;6.03;;;1.83;;
6852;SDS011;3465;42.144;24.722;2022-09-29T07:27:07;9.88;;;2.45;;
6852;SDS011;3465;42.144;24.722;2022-09-29T07:29:33;5.05;;;1.90;;
6852;SDS011;3465;42.144;24.722;2022-09-29T07:31:59;5.55;;;2.00;;
6852;SDS011;3465;42.144;24.722;2022-09-29T07:34:24;9.05;;;2.58;;
6852;SDS011;3465;42.144;24.722;2022-09-29T07:36:50;4.00;;;1.90;;
6852;SDS011;3465;42.144;24.722;2022-09-29T07:39:16;8.45;;;2.33;;
6852;SDS011;3465;42.144;24.722;2022-09-29T07:41:41;7.57;;;2.05;;
6852;SDS011;3465;42.144;24.722;2022-09-29T07:44:07;7.40;;;2.05;;
6852;SDS011;3465;42.144;24.722;2022-09-29T07:46:32;11.25;;;2.13;;
6852;SDS011;3465;42.144;24.722;2022-09-29T07:48:58;6.72;;;2.28;;
6852;SDS011;3465;42.144;24.722;2022-09-29T07:51:23;5.65;;;2.33;;
6852;SDS011;3465;42.144;24.722;2022-09-29T07:53:49;6.22;;;2.35;;
6852;SDS011;3465;42.144;24.722;2022-09-29T07:56:18;11.45;;;2.50;;
6852;SDS011;3465;42.144;24.722;2022-09-29T07:58:46;9.32;;;2.17;;
6852;SDS011;3465;42.144;24.722;2022-09-29T08:01:14;7.25;;;2.25;;
6852;SDS011;3465;42.144;24.722;2022-09-29T08:03:40;7.78;;;2.70;;
6852;SDS011;3465;42.144;24.722;2022-09-29T08:06:08;5.80;;;1.85;;
6852;SDS011;3465;42.144;24.722;2022-09-29T08:08:35;8.23;;;2.05;;
6852;SDS011;3465;42.144;24.722;2022-09-29T08:11:05;7.03;;;2.25;;
6852;SDS011;3465;42.144;24.722;2022-09-29T08:13:33;6.78;;;2.05;;
6852;SDS011;3465;42.144;24.722;2022-09-29T08:16:00;11.35;;;2.63;;
6852;SDS011;3465;42.144;24.722;2022-09-29T08:18:27;5.53;;;2.20;;
6852;SDS011;3465;42.144;24.722;2022-09-29T08:20:53;7.80;;;1.90;;
6852;SDS011;3465;42.144;24.722;2022-09-29T08:23:19;4.60;;;1.85;;
6852;SDS011;3465;42.144;24.722;2022-09-29T08:25:46;5.38;;;2.10;;
6852;SDS011;3465;42.144;24.722;2022-09-29T08:28:11;4.78;;;1.92;;
6852;SDS011;3465;42.144;24.722;2022-09-29T08:30:37;5.40;;;2.20;;
6852;SDS011;3465;42.144;24.722;2022-09-29T08:33:03;11.23;;;2.40;;
6852;SDS011;3465;42.144;24.722;2022-09-29T08:35:31;8.27;;;2.20;;
6852;SDS011;3465;42.144;24.722;2022-09-29T08:37:56;8.75;;;1.90;;
6852;SDS011;3465;42.144;24.722;2022-09-29T08:40:22;7.20;;;2.20;;
6852;SDS011;3465;42.144;24.722;2022-09-29T08:45:42;11.27;;;1.90;;
6852;SDS011;3465;42.144;24.722;2022-09-29T08:48:13;6.53;;;2.10;;
6852;SDS011;3465;42.144;24.722;2022-09-29T08:53:18;3.83;;;2.00;;
6852;SDS011;3465;42.144;24.722;2022-09-29T08:55:49;5.63;;;1.80;;
6852;SDS011;3465;42.144;24.722;2022-09-29T08:58:18;5.75;;;1.73;;
6852;SDS011;3465;42.144;24.722;2022-09-29T09:00:50;7.45;;;2.00;;
6852;SDS011;3465;42.144;24.722;2022-09-29T09:09:03;9.02;;;1.98;;
6852;SDS011;3465;42.144;24.722;2022-09-29T09:26:10;5.30;;;1.77;;
6852;SDS011;3465;42.144;24.722;2022-09-29T09:28:40;7.10;;;2.13;;
6852;SDS011;3465;42.144;24.722;2022-09-29T09:31:17;7.00;;;1.80;;
6852;SDS011;3465;42.144;24.722;2022-09-29T09:36:51;4.90;;;1.77;;
6852;SDS011;3465;42.144;24.722;2022-09-29T09:39:26;3.72;;;2.00;;
6852;SDS011;3465;42.144;24.722;2022-09-29T09:41:56;8.65;;;2.20;;
6852;SDS011;3465;42.144;24.722;2022-09-29T09:44:35;8.07;;;2.13;;
6852;SDS011;3465;42.144;24.722;2022-09-29T09:49:41;7.63;;;2.17;;
6852;SDS011;3465;42.144;24.722;2022-09-29T09:55:20;3.25;;;2.20;;
6852;SDS011;3465;42.144;24.722;2022-09-29T10:00:42;8.05;;;2.67;;
6852;SDS011;3465;42.144;24.722;2022-09-29T10:03:11;7.93;;;2.75;;
6852;SDS011;3465;42.144;24.722;2022-09-29T10:05:39;7.30;;;2.60;;
6852;SDS011;3465;42.144;24.722;2022-09-29T10:08:26;39.38;;;4.15;;
6852;SDS011;3465;42.144;24.722;2022-09-29T10:10:53;23.25;;;3.55;;
6852;SDS011;3465;42.144;24.722;2022-09-29T10:13:20;63.22;;;5.28;;
6852;SDS011;3465;42.144;24.722;2022-09-29T10:15:54;11.80;;;3.47;;
6852;SDS011;3465;42.144;24.722;2022-09-29T10:18:40;7.95;;;3.15;;
6852;SDS011;3465;42.144;24.722;2022-09-29T10:21:51;7.57;;;3.10;;
6852;SDS011;3465;42.144;24.722;2022-09-29T10:24:20;13.40;;;3.30;;
6852;SDS011;3465;42.144;24.722;2022-09-29T10:26:56;14.48;;;3.70;;
6852;SDS011;3465;42.144;24.722;2022-09-29T10:29:37;11.05;;;3.10;;
6852;SDS011;3465;42.144;24.722;2022-09-29T10:34:34;11.85;;;3.20;;
6852;SDS011;3465;42.144;24.722;2022-09-29T10:37:03;9.27;;;2.80;;
6852;SDS011;3465;42.144;24.722;2022-09-29T10:39:40;9.48;;;3.10;;
6852;SDS011;3465;42.144;24.722;2022-09-29T10:42:20;7.05;;;2.67;;
6852;SDS011;3465;42.144;24.722;2022-09-29T10:44:51;7.28;;;2.90;;
6852;SDS011;3465;42.144;24.722;2022-09-29T10:47:25;6.97;;;2.90;;
6852;SDS011;3465;42.144;24.722;2022-09-29T10:52:42;9.63;;;2.40;;
6852;SDS011;3465;42.144;24.722;2022-09-29T10:55:15;10.93;;;2.47;;
6852;SDS011;3465;42.144;24.722;2022-09-29T10:57:43;8.55;;;2.72;;
6852;SDS011;3465;42.144;24.722;2022-09-29T11:03:02;6.32;;;2.42;;
6852;SDS011;3465;42.144;24.722;2022-09-29T11:05:28;6.78;;;2.53;;
6852;SDS011;3465;42.144;24.722;2022-09-29T11:07:54;6.07;;;2.55;;
6852;SDS011;3465;42.144;24.722;2022-09-29T11:10:26;10.20;;;2.30;;
6852;SDS011;3465;42.144;24.722;2022-09-29T11:13:45;9.20;;;2.80;;
6852;SDS011;3465;42.144;24.722;2022-09-29T11:15:48;7.60;;;2.88;;
6852;SDS011;3465;42.144;24.722;2022-09-29T11:18:21;8.18;;;3.38;;
6852;SDS011;3465;42.144;24.722;2022-09-29T11:20:58;7.38;;;4.22;;
6852;SDS011;3465;42.144;24.722;2022-09-29T11:23:40;11.65;;;3.30;;
6852;SDS011;3465;42.144;24.722;2022-09-29T11:26:13;10.48;;;3.38;;
6852;SDS011;3465;42.144;24.722;2022-09-29T11:28:57;11.02;;;3.58;;
6852;SDS011;3465;42.144;24.722;2022-09-29T11:45:09;9.95;;;5.70;;
6852;SDS011;3465;42.144;24.722;2022-09-29T11:58:35;8.38;;;4.80;;
6852;SDS011;3465;42.144;24.722;2022-09-29T12:12:34;9.35;;;4.32;;
6852;SDS011;3465;42.144;24.722;2022-09-29T12:15:19;15.52;;;4.45;;
6852;SDS011;3465;42.144;24.722;2022-09-29T12:17:59;13.70;;;4.78;;
6852;SDS011;3465;42.144;24.722;2022-09-29T12:20:32;8.18;;;3.40;;
6852;SDS011;3465;42.144;24.722;2022-09-29T12:23:03;10.10;;;4.00;;
6852;SDS011;3465;42.144;24.722;2022-09-29T12:25:34;7.10;;;2.97;;
6852;SDS011;3465;42.144;24.722;2022-09-29T12:28:06;5.45;;;2.50;;
6852;SDS011;3465;42.144;24.722;2022-09-29T12:33:25;5.32;;;2.40;;
6852;SDS011;3465;42.144;24.722;2022-09-29T12:39:03;10.80;;;2.58;;
6852;SDS011;3465;42.144;24.722;2022-09-29T12:41:36;10.15;;;2.10;;
6852;SDS011;3465;42.144;24.722;2022-09-29T12:44:17;4.38;;;2.33;;
6852;SDS011;3465;42.144;24.722;2022-09-29T12:49:38;77.95;;;6.70;;
6852;SDS011;3465;42.144;24.722;2022-09-29T12:52:20;4.93;;;2.42;;
6852;SDS011;3465;42.144;24.722;2022-09-29T12:54:52;29.23;;;6.80;;
6852;SDS011;3465;42.144;24.722;2022-09-29T12:57:27;8.50;;;3.63;;
6852;SDS011;3465;42.144;24.722;2022-09-29T12:59:58;12.05;;;3.65;;
6852;SDS011;3465;42.144;24.722;2022-09-29T13:08:49;4.53;;;2.50;;
6852;SDS011;3465;42.144;24.722;2022-09-29T13:17:33;5.45;;;2.30;;
6852;SDS011;3465;42.144;24.722;2022-09-29T13:22:54;7.75;;;2.45;;
6852;SDS011;3465;42.144;24.722;2022-09-29T13:31:06;12.68;;;2.38;;
6852;SDS011;3465;42.144;24.722;2022-09-29T13:33:35;6.07;;;2.42;;
6852;SDS011;3465;42.144;24.722;2022-09-29T13:36:02;5.10;;;2.05;;
6852;SDS011;3465;42.144;24.722;2022-09-29T13:38:29;8.98;;;2.67;;
6852;SDS011;3465;42.144;24.722;2022-09-29T13:41:31;5.00;;;2.55;;
6852;SDS011;3465;42.144;24.722;2022-09-29T13:44:05;7.30;;;2.10;;
6852;SDS011;3465;42.144;24.722;2022-09-29T13:46:40;4.60;;;2.20;;
6852;SDS011;3465;42.144;24.722;2022-09-29T13:54:13;4.70;;;2.10;;
6852;SDS011;3465;42.144;24.722;2022-09-29T13:56:46;8.60;;;2.60;;
6852;SDS011;3465;42.144;24.722;2022-09-29T13:59:13;9.43;;;2.58;;
6852;SDS011;3465;42.144;24.722;2022-09-29T14:01:42;5.65;;;2.00;;
6852;SDS011;3465;42.144;24.722;2022-09-29T14:07:13;8.90;;;2.55;;
6852;SDS011;3465;42.144;24.722;2022-09-29T14:10:02;8.23;;;2.97;;
6852;SDS011;3465;42.144;24.722;2022-09-29T14:12:38;5.75;;;2.72;;
6852;SDS011;3465;42.144;24.722;2022-09-29T14:15:04;4.65;;;2.42;;
6852;SDS011;3465;42.144;24.722;2022-09-29T14:17:36;5.70;;;2.78;;
6852;SDS011;3465;42.144;24.722;2022-09-29T14:20:15;4.38;;;2.15;;
6852;SDS011;3465;42.144;24.722;2022-09-29T14:22:50;7.47;;;2.30;;
6852;SDS011;3465;42.144;24.722;2022-09-29T14:27:46;9.40;;;2.92;;
6852;SDS011;3465;42.144;24.722;2022-09-29T14:44:05;9.57;;;2.60;;
6852;SDS011;3465;42.144;24.722;2022-09-29T14:49:54;5.75;;;2.00;;
6852;SDS011;3465;42.144;24.722;2022-09-29T15:03:10;5.90;;;2.47;;
6852;SDS011;3465;42.144;24.722;2022-09-29T15:05:48;6.25;;;2.60;;
6852;SDS011;3465;42.144;24.722;2022-09-29T15:08:34;9.27;;;2.85;;
6852;SDS011;3465;42.144;24.722;2022-09-29T15:11:00;7.03;;;2.75;;
6852;SDS011;3465;42.144;24.722;2022-09-29T15:13:28;11.85;;;3.80;;
6852;SDS011;3465;42.144;24.722;2022-09-29T15:15:57;9.73;;;4.55;;
6852;SDS011;3465;42.144;24.722;2022-09-29T15:21:08;12.85;;;4.05;;
6852;SDS011;3465;42.144;24.722;2022-09-29T15:24:05;7.53;;;3.53;;
6852;SDS011;3465;42.144;24.722;2022-09-29T15:26:43;8.27;;;3.83;;
6852;SDS011;3465;42.144;24.722;2022-09-29T15:29:12;11.20;;;3.53;;
6852;SDS011;3465;42.144;24.722;2022-09-29T15:31:39;10.50;;;3.15;;
6852;SDS011;3465;42.144;24.722;2022-09-29T15:34:08;8.98;;;3.53;;
6852;SDS011;3465;42.144;24.722;2022-09-29T15:36:40;18.77;;;7.07;;
6852;SDS011;3465;42.144;24.722;2022-09-29T15:39:07;40.75;;;10.30;;
6852;SDS011;3465;42.144;24.722;2022-09-29T15:41:49;10.82;;;5.10;;
6852;SDS011;3465;42.144;24.722;2022-09-29T15:44:27;24.33;;;7.97;;
6852;SDS011;3465;42.144;24.722;2022-09-29T15:46:58;24.05;;;10.30;;
6852;SDS011;3465;42.144;24.722;2022-09-29T15:49:25;21.27;;;9.73;;
6852;SDS011;3465;42.144;24.722;2022-09-29T15:52:02;25.02;;;10.68;;
6852;SDS011;3465;42.144;24.722;2022-09-29T15:54:37;17.45;;;7.15;;
6852;SDS011;3465;42.144;24.722;2022-09-29T15:57:05;30.08;;;9.55;;
6852;SDS011;3465;42.144;24.722;2022-09-29T15:59:50;139.30;;;44.08;;
6852;SDS011;3465;42.144;24.722;2022-09-29T16:05:04;210.70;;;68.00;;
6852;SDS011;3465;42.144;24.722;2022-09-29T16:07:50;209.20;;;63.38;;
6852;SDS011;3465;42.144;24.722;2022-09-29T16:10:22;89.20;;;27.83;;
6852;SDS011;3465;42.144;24.722;2022-09-29T16:12:53;99.53;;;36.00;;
6852;SDS011;3465;42.144;24.722;2022-09-29T16:16:04;97.97;;;37.65;;
6852;SDS011;3465;42.144;24.722;2022-09-29T16:21:15;102.63;;;36.45;;
6852;SDS011;3465;42.144;24.722;2022-09-29T16:31:25;45.13;;;18.27;;
6852;SDS011;3465;42.144;24.722;2022-09-29T16:33:53;37.38;;;15.32;;
6852;SDS011;3465;42.144;24.722;2022-09-29T16:36:28;37.40;;;12.93;;
6852;SDS011;3465;42.144;24.722;2022-09-29T16:38:57;18.65;;;7.10;;
6852;SDS011;3465;42.144;24.722;2022-09-29T16:41:33;34.67;;;12.55;;
6852;SDS011;3465;42.144;24.722;2022-09-29T16:44:05;33.00;;;13.55;;
6852;SDS011;3465;42.144;24.722;2022-09-29T16:49:43;21.88;;;10.05;;
6852;SDS011;3465;42.144;24.722;2022-09-29T16:54:39;21.35;;;8.20;;
6852;SDS011;3465;42.144;24.722;2022-09-29T16:59:42;21.83;;;8.57;;
6852;SDS011;3465;42.144;24.722;2022-09-29T17:02:09;23.35;;;7.97;;
6852;SDS011;3465;42.144;24.722;2022-09-29T17:04:35;18.23;;;6.72;;
6852;SDS011;3465;42.144;24.722;2022-09-29T17:07:01;14.80;;;6.47;;
6852;SDS011;3465;42.144;24.722;2022-09-29T17:09:27;15.40;;;5.40;;
6852;SDS011;3465;42.144;24.722;2022-09-29T17:11:53;10.90;;;4.80;;
6852;SDS011;3465;42.144;24.722;2022-09-29T17:14:18;12.48;;;5.35;;
6852;SDS011;3465;42.144;24.722;2022-09-29T17:16:45;15.00;;;6.45;;
6852;SDS011;3465;42.144;24.722;2022-09-29T17:19:13;19.63;;;6.03;;
6852;SDS011;3465;42.144;24.722;2022-09-29T17:21:39;13.02;;;5.75;;
6852;SDS011;3465;42.144;24.722;2022-09-29T17:24:04;17.77;;;5.63;;
6852;SDS011;3465;42.144;24.722;2022-09-29T17:26:40;16.45;;;6.00;;
6852;SDS011;3465;42.144;24.722;2022-09-29T17:29:26;16.08;;;6.60;;
6852;SDS011;3465;42.144;24.722;2022-09-29T17:31:52;30.02;;;12.27;;
6852;SDS011;3465;42.144;24.722;2022-09-29T17:34:18;33.40;;;11.25;;
6852;SDS011;3465;42.144;24.722;2022-09-29T17:36:49;35.35;;;13.90;;
6852;SDS011;3465;42.144;24.722;2022-09-29T17:39:15;35.83;;;12.45;;
6852;SDS011;3465;42.144;24.722;2022-09-29T17:41:40;44.97;;;11.85;;
6852;SDS011;3465;42.144;24.722;2022-09-29T17:44:05;25.58;;;9.77;;
6852;SDS011;3465;42.144;24.722;2022-09-29T17:46:33;22.73;;;8.85;;
6852;SDS011;3465;42.144;24.722;2022-09-29T17:49:00;23.75;;;11.07;;
6852;SDS011;3465;42.144;24.722;2022-09-29T17:51:25;32.95;;;12.02;;
6852;SDS011;3465;42.144;24.722;2022-09-29T17:53:51;24.83;;;9.63;;
6852;SDS011;3465;42.144;24.722;2022-09-29T17:58:49;22.55;;;8.48;;
6852;SDS011;3465;42.144;24.722;2022-09-29T18:01:20;20.20;;;8.18;;
6852;SDS011;3465;42.144;24.722;2022-09-29T18:03:47;27.13;;;9.10;;
6852;SDS011;3465;42.144;24.722;2022-09-29T18:06:17;22.48;;;9.85;;
6852;SDS011;3465;42.144;24.722;2022-09-29T18:08:46;18.33;;;8.73;;
6852;SDS011;3465;42.144;24.722;2022-09-29T18:11:12;26.80;;;9.52;;
6852;SDS011;3465;42.144;24.722;2022-09-29T18:13:38;27.60;;;11.52;;
6852;SDS011;3465;42.144;24.722;2022-09-29T18:16:03;24.75;;;10.45;;
6852;SDS011;3465;42.144;24.722;2022-09-29T18:18:29;20.52;;;10.57;;
6852;SDS011;3465;42.144;24.722;2022-09-29T18:20:54;24.42;;;10.27;;
6852;SDS011;3465;42.144;24.722;2022-09-29T18:23:20;23.38;;;9.77;;
6852;SDS011;3465;42.144;24.722;2022-09-29T18:25:49;22.25;;;10.27;;
6852;SDS011;3465;42.144;24.722;2022-09-29T18:28:16;28.75;;;10.75;;
6852;SDS011;3465;42.144;24.722;2022-09-29T18:30:45;25.48;;;9.73;;
6852;SDS011;3465;42.144;24.722;2022-09-29T18:33:14;21.55;;;9.95;;
6852;SDS011;3465;42.144;24.722;2022-09-29T18:35:41;24.88;;;9.65;;
6852;SDS011;3465;42.144;24.722;2022-09-29T18:38:08;21.23;;;9.73;;
6852;SDS011;3465;42.144;24.722;2022-09-29T18:40:34;17.73;;;7.85;;
6852;SDS011;3465;42.144;24.722;2022-09-29T18:43:02;18.98;;;6.95;;